createdAt,value
2018-02-06T00:01:41.323Z,22.10
2018-02-06T00:04:08.906Z,21.70
2018-02-06T00:06:36.481Z,21.62
2018-02-06T00:09:03.338Z,20.02
2018-02-06T00:11:30.178Z,23.58
2018-02-06T00:13:56.997Z,22.13
2018-02-06T00:16:24.558Z,21.70
2018-02-06T00:18:51.368Z,21.60
2018-02-06T00:21:18.216Z,22.27
2018-02-06T00:23:45.060Z,22.75
2018-02-06T00:26:12.645Z,21.02
2018-02-06T00:28:40.189Z,23.00
2018-02-06T00:31:07.022Z,21.75
2018-02-06T00:33:34.603Z,20.45
2018-02-06T00:36:02.177Z,22.40
2018-02-06T00:38:28.976Z,21.90
2018-02-06T00:40:55.806Z,21.30
2018-02-06T00:43:22.622Z,21.00
2018-02-06T00:45:49.433Z,21.10
2018-02-06T00:48:17.001Z,24.15
2018-02-06T00:50:43.842Z,20.15
2018-02-06T00:53:10.685Z,21.70
2018-02-06T00:55:37.524Z,22.42
2018-02-06T00:58:04.514Z,21.02
2018-02-06T01:00:31.330Z,23.17
2018-02-06T01:02:58.121Z,22.35
2018-02-06T01:05:24.930Z,22.25
2018-02-06T01:07:51.791Z,22.75
2018-02-06T01:10:18.658Z,22.15
2018-02-06T01:12:45.453Z,20.00
2018-02-06T01:15:12.326Z,22.40
2018-02-06T01:17:39.113Z,20.45
2018-02-06T01:20:05.934Z,22.77
2018-02-06T01:22:33.513Z,21.10
2018-02-06T01:25:01.055Z,21.00
2018-02-06T01:27:28.734Z,22.45
2018-02-06T01:29:55.563Z,21.10
2018-02-06T01:32:22.406Z,20.55
2018-02-06T01:34:49.221Z,21.17
2018-02-06T01:37:16.765Z,20.58
2018-02-06T01:39:43.573Z,21.20
2018-02-06T01:42:11.234Z,22.40
2018-02-06T01:44:38.052Z,22.05
2018-02-06T01:47:05.597Z,20.10
2018-02-06T01:49:33.297Z,22.83
2018-02-06T01:52:00.110Z,19.35
2018-02-06T01:54:26.922Z,21.30
2018-02-06T01:56:53.810Z,23.27
2018-02-06T01:59:21.353Z,22.13
2018-02-06T02:01:48.213Z,19.60
2018-02-06T02:04:15.041Z,18.77
2018-02-06T02:06:42.582Z,18.23
2018-02-06T02:09:09.398Z,17.85
2018-02-06T02:11:36.216Z,17.45
2018-02-06T02:14:03.288Z,18.15
2018-02-06T02:16:30.065Z,18.20
2018-02-06T02:18:56.853Z,18.70
2018-02-06T02:21:23.693Z,19.80
2018-02-06T02:23:51.235Z,19.25
2018-02-06T02:26:18.756Z,19.27
2018-02-06T02:28:45.782Z,18.45
2018-02-06T02:31:12.607Z,18.45
2018-02-06T02:33:39.457Z,17.55
2018-02-06T02:36:06.298Z,18.35
2018-02-06T02:38:33.126Z,17.67
2018-02-06T02:40:59.954Z,19.92
2018-02-06T04:38:30.050Z,13.62
2018-02-06T04:40:56.909Z,12.50
2018-02-06T04:43:23.714Z,14.40
2018-02-06T04:45:50.711Z,14.02
2018-02-06T04:48:17.561Z,14.65
2018-02-06T04:50:44.376Z,14.80
2018-02-06T04:53:11.229Z,13.35
2018-02-06T04:55:38.053Z,13.85
2018-02-06T04:58:04.930Z,15.60
2018-02-06T05:00:31.781Z,15.43
2018-02-06T05:02:58.602Z,14.40
2018-02-06T05:05:25.429Z,15.00
2018-02-06T05:07:52.313Z,14.15
2018-02-06T05:10:19.161Z,16.30
2018-02-06T05:12:45.980Z,14.20
2018-02-06T05:15:12.784Z,15.07
2018-02-06T05:17:39.634Z,16.37
2018-02-06T05:20:06.528Z,14.20
2018-02-06T05:22:34.101Z,14.43
2018-02-06T05:25:01.721Z,13.02
2018-02-06T05:27:28.558Z,12.98
2018-02-06T05:29:55.358Z,14.38
2018-02-06T05:32:22.955Z,13.65
2018-02-06T05:34:49.812Z,13.00
2018-02-06T05:37:16.645Z,13.35
2018-02-06T05:39:43.457Z,13.45
2018-02-06T05:42:10.266Z,13.90
2018-02-06T05:44:37.109Z,15.80
2018-02-06T05:47:03.946Z,14.10
2018-02-06T05:49:30.862Z,13.43
2018-02-06T05:51:58.496Z,14.15
2018-02-06T05:54:25.336Z,14.95
2018-02-06T05:56:52.898Z,14.65
2018-02-06T05:59:19.708Z,13.60
2018-02-06T06:01:46.525Z,14.13
2018-02-06T06:04:14.174Z,15.43
2018-02-06T06:06:41.030Z,15.07
2018-02-06T06:09:07.874Z,14.18
2018-02-06T06:11:35.534Z,16.30
2018-02-06T06:14:02.412Z,17.52
2018-02-06T06:16:29.321Z,18.83
2018-02-06T06:18:56.985Z,17.52
2018-02-06T06:21:23.883Z,15.18
2018-02-06T06:23:50.858Z,15.82
2018-02-06T06:26:17.770Z,15.43
2018-02-06T06:28:44.688Z,17.12
2018-02-06T06:31:11.662Z,18.62
2018-02-06T06:33:38.567Z,16.92
2018-02-06T06:36:06.172Z,18.30
2018-02-06T06:38:33.074Z,17.17
2018-02-06T06:40:59.954Z,18.17
2018-02-06T06:43:26.889Z,16.67
2018-02-06T06:45:54.483Z,18.37
2018-02-06T06:48:21.334Z,16.55
2018-02-06T06:50:48.207Z,16.87
2018-02-06T06:53:15.812Z,18.17
2018-02-06T06:55:42.665Z,18.05
2018-02-06T06:58:09.557Z,19.27
2018-02-06T07:00:37.154Z,17.87
2018-02-06T07:03:04.047Z,19.08
2018-02-06T07:05:31.698Z,18.23
2018-02-06T07:07:58.567Z,21.50
2018-02-06T07:10:26.149Z,18.90
2018-02-06T07:12:53.738Z,19.75
2018-02-06T07:15:20.622Z,16.37
2018-02-06T07:17:47.486Z,18.25
2018-02-06T07:20:15.082Z,17.90
2018-02-06T07:22:41.932Z,17.83
2018-02-06T07:25:08.820Z,18.30
2018-02-06T07:27:36.439Z,19.42
2018-02-06T07:30:03.323Z,17.52
2018-02-06T07:32:30.188Z,20.20
2018-02-06T07:34:57.046Z,18.05
2018-02-06T07:37:24.657Z,19.55
2018-02-06T07:39:51.578Z,18.20
2018-02-06T07:42:19.233Z,19.17
2018-02-06T07:44:46.185Z,19.30
2018-02-06T07:47:13.100Z,19.20
2018-02-06T07:49:40.026Z,20.60
2018-02-06T07:52:06.894Z,19.20
2018-02-06T07:54:33.767Z,18.12
2018-02-06T07:57:00.625Z,17.73
2018-02-06T07:59:27.474Z,19.35
2018-02-06T08:01:54.354Z,17.45
2018-02-06T08:04:21.930Z,18.60
2018-02-06T08:06:48.794Z,18.42
2018-02-06T08:09:16.417Z,18.17
2018-02-06T08:11:44.181Z,17.75
2018-02-06T08:14:11.073Z,18.60
2018-02-06T08:16:37.898Z,18.67
2018-02-06T08:19:04.733Z,18.90
2018-02-06T08:21:31.553Z,20.55
2018-02-06T08:23:58.399Z,20.45
2018-02-06T08:26:32.986Z,19.33
2018-02-06T08:28:59.805Z,18.75
2018-02-06T08:31:26.687Z,23.12
2018-02-06T08:33:53.506Z,27.52
2018-02-06T08:36:20.325Z,25.98
2018-02-06T08:38:47.137Z,24.87
2018-02-06T08:41:13.973Z,24.15
2018-02-06T08:43:40.782Z,21.10
2018-02-06T08:46:07.666Z,19.20
2018-02-06T08:48:35.210Z,20.80
2018-02-06T08:51:02.825Z,22.87
2018-02-06T08:53:29.648Z,19.50
2018-02-06T08:55:56.442Z,20.42
2018-02-06T08:58:24.046Z,20.25
2018-02-06T09:00:51.583Z,22.65
2018-02-06T09:03:18.403Z,24.87
2018-02-06T09:05:45.982Z,23.50
2018-02-06T09:08:12.837Z,23.45
2018-02-06T09:10:39.670Z,23.12
2018-02-06T09:13:07.227Z,22.27
2018-02-06T09:15:34.821Z,21.90
2018-02-06T09:18:01.657Z,20.65
2018-02-06T09:20:28.473Z,20.33
2018-02-06T09:22:56.048Z,21.15
2018-02-06T09:25:22.899Z,23.30
2018-02-06T09:27:49.762Z,24.02
2018-02-06T09:30:16.651Z,23.35
2018-02-06T09:32:44.237Z,23.40
2018-02-06T09:35:11.794Z,24.25
2018-02-06T09:37:38.619Z,20.58
2018-02-06T09:40:06.183Z,21.65
2018-02-06T09:42:33.825Z,20.02
2018-02-06T09:45:01.391Z,23.55
2018-02-06T09:47:28.958Z,26.42
2018-02-06T09:49:56.537Z,24.25
2018-02-06T09:52:23.367Z,23.62
2018-02-06T09:54:50.185Z,22.25
2018-02-06T09:57:17.199Z,21.52
2018-02-06T09:59:44.025Z,22.60
2018-02-06T10:02:11.548Z,26.08
2018-02-06T10:04:38.372Z,24.70
2018-02-06T10:07:05.238Z,26.75
2018-02-06T10:09:32.794Z,25.37
2018-02-06T10:11:59.677Z,26.70
2018-02-06T10:14:26.483Z,22.95
2018-02-06T10:16:54.044Z,27.83
2018-02-06T10:19:21.617Z,25.90
2018-02-06T10:21:48.442Z,25.85
2018-02-06T10:24:15.437Z,26.52
2018-02-06T10:26:42.226Z,26.00
2018-02-06T10:29:09.782Z,26.42
2018-02-06T10:31:37.404Z,24.75
2018-02-06T10:34:04.213Z,26.60
2018-02-06T10:36:31.006Z,27.92
2018-02-06T10:38:58.595Z,23.55
2018-02-06T10:41:26.150Z,25.98
2018-02-06T10:43:52.986Z,21.67
2018-02-06T10:46:19.774Z,24.48
2018-02-06T10:48:46.609Z,25.35
2018-02-06T10:51:13.454Z,26.27
2018-02-06T10:53:40.414Z,28.67
2018-02-06T10:56:07.225Z,27.83
2018-02-06T10:58:34.793Z,27.55
2018-02-06T11:01:01.641Z,29.90
2018-02-06T11:03:29.179Z,28.80
2018-02-06T11:05:56.019Z,28.67
2018-02-06T11:08:23.589Z,28.00
2018-02-06T11:10:50.454Z,29.35
2018-02-06T11:13:17.315Z,26.62
2018-02-06T11:15:44.114Z,26.20
2018-02-06T11:18:10.958Z,27.13
2018-02-06T11:20:38.494Z,34.00
2018-02-06T11:23:06.057Z,33.08
2018-02-06T11:25:33.674Z,29.75
2018-02-06T11:28:00.485Z,28.90
2018-02-06T11:30:27.341Z,27.62
2018-02-06T11:32:54.154Z,30.05
2018-02-06T11:35:22.682Z,28.73
2018-02-06T11:37:49.531Z,30.67
2018-02-06T11:40:16.354Z,30.23
2018-02-06T11:42:43.227Z,28.45
2018-02-06T11:45:10.051Z,29.25
2018-02-06T11:47:36.897Z,27.52
2018-02-06T11:50:03.763Z,27.40
2018-02-06T11:52:31.959Z,31.25
2018-02-06T11:54:58.857Z,30.37
2018-02-06T11:57:25.694Z,29.15
2018-02-06T11:59:52.525Z,28.35
2018-02-06T12:02:19.370Z,28.42
2018-02-06T12:04:46.209Z,30.33
2018-02-06T12:07:13.059Z,28.73
2018-02-06T12:09:39.888Z,29.25
2018-02-06T12:12:06.730Z,29.98
2018-02-06T12:14:33.557Z,29.15
2018-02-06T12:17:00.401Z,25.55
2018-02-06T12:19:27.225Z,28.15
2018-02-06T12:21:54.781Z,25.60
2018-02-06T12:24:21.649Z,29.35
2018-02-06T12:26:48.458Z,27.60
2018-02-06T12:29:15.286Z,29.15
2018-02-06T12:31:42.229Z,28.70
2018-02-06T12:34:09.049Z,26.42
2018-02-06T12:36:35.882Z,29.50
2018-02-06T12:39:02.790Z,28.55
2018-02-06T12:41:29.673Z,27.52
2018-02-06T12:43:56.489Z,25.10
2018-02-06T12:46:23.418Z,25.75
2018-02-06T12:48:51.006Z,24.58
2018-02-06T12:51:17.831Z,26.85
2018-02-06T12:53:45.375Z,26.48
2018-02-06T12:56:12.954Z,26.08
2018-02-06T12:58:40.522Z,27.92
2018-02-06T13:01:07.393Z,25.70
2018-02-06T13:03:34.210Z,29.50
2018-02-06T13:06:01.869Z,27.10
2018-02-06T13:08:28.704Z,28.25
2018-02-06T13:10:55.651Z,26.20
2018-02-06T13:13:22.490Z,23.98
2018-02-06T13:15:49.310Z,25.08
2018-02-06T13:18:16.877Z,26.08
2018-02-06T13:20:44.464Z,24.25
2018-02-06T13:23:11.302Z,27.42
2018-02-06T13:25:38.141Z,26.80
2018-02-06T13:28:04.949Z,28.27
2018-02-06T13:30:31.762Z,25.48
2018-02-06T13:32:58.606Z,27.25
2018-02-06T13:35:25.429Z,26.92
2018-02-06T13:37:52.237Z,27.05
2018-02-06T13:40:19.841Z,27.48
2018-02-06T13:42:46.650Z,29.02
2018-02-06T13:45:13.473Z,27.75
2018-02-06T13:47:40.321Z,25.75
2018-02-06T13:50:07.897Z,27.13
2018-02-06T13:52:34.738Z,26.80
2018-02-06T13:55:01.708Z,28.45
2018-02-06T13:57:47.190Z,30.35
2018-02-06T14:00:14.041Z,29.08
2018-02-06T14:02:40.873Z,28.42
2018-02-06T14:05:07.804Z,27.45
2018-02-06T14:07:34.626Z,29.23
2018-02-06T14:10:02.247Z,27.13
2018-02-06T14:12:29.061Z,28.27
2018-02-06T14:14:55.917Z,26.20
2018-02-06T14:17:22.709Z,26.62
2018-02-06T14:19:50.301Z,27.67
2018-02-06T14:22:17.197Z,27.10
2018-02-06T14:24:44.006Z,26.85
2018-02-06T14:27:10.797Z,28.62
2018-02-06T14:29:38.369Z,28.92
2018-02-06T14:32:05.913Z,29.20
2018-02-06T14:34:33.486Z,28.52
2018-02-06T14:37:00.338Z,28.50
2018-02-06T14:39:27.139Z,26.62
2018-02-06T14:41:53.985Z,28.02
2018-02-06T14:44:20.794Z,26.62
2018-02-06T14:46:54.589Z,27.17
2018-02-06T14:49:21.413Z,27.23
2018-02-06T14:51:48.246Z,28.45
2018-02-06T14:54:15.826Z,29.67
2018-02-06T14:56:42.657Z,30.15
2018-02-06T14:59:09.517Z,29.70
2018-02-06T15:01:36.377Z,30.23
2018-02-06T15:04:03.217Z,30.73
2018-02-06T15:06:30.121Z,32.70
2018-02-06T15:08:56.924Z,31.40
2018-02-06T15:11:24.514Z,34.88
2018-02-06T15:13:52.081Z,31.95
2018-02-06T15:16:19.631Z,31.60
2018-02-06T15:18:47.217Z,32.60
2018-02-06T15:21:14.029Z,32.75
2018-02-06T15:23:41.621Z,34.58
2018-02-06T15:26:08.434Z,33.80
2018-02-06T15:28:36.009Z,32.85
2018-02-06T15:31:03.574Z,31.35
2018-02-06T15:33:30.406Z,33.30
2018-02-06T15:35:57.966Z,33.58
2018-02-06T15:38:25.541Z,34.95
2018-02-06T15:40:53.150Z,35.35
2018-02-06T15:43:19.981Z,35.17
2018-02-06T15:45:46.837Z,33.65
2018-02-06T15:48:13.648Z,39.42
2018-02-06T15:50:40.438Z,35.45
2018-02-06T15:53:08.034Z,38.45
2018-02-06T15:55:35.576Z,39.03
2018-02-06T15:58:03.177Z,46.45
2018-02-06T16:03:33.890Z,40.92
2018-02-06T16:06:01.482Z,39.33
2018-02-06T16:08:29.171Z,44.97
2018-02-06T16:10:55.998Z,39.00
2018-02-06T16:13:22.820Z,40.10
2018-02-06T16:15:49.721Z,38.25
2018-02-06T16:18:17.302Z,39.65
2018-02-06T16:20:44.972Z,37.55
2018-02-06T16:23:12.522Z,38.88
2018-02-06T16:25:39.342Z,39.42
2018-02-06T16:28:06.933Z,41.05
2018-02-06T16:30:33.790Z,40.40
2018-02-06T16:33:00.630Z,36.60
2018-02-06T16:35:27.466Z,39.75
2018-02-06T16:37:54.325Z,39.92
2018-02-06T16:40:21.170Z,40.42
2018-02-06T16:42:48.081Z,39.85
2018-02-06T16:45:15.020Z,39.50
2018-02-06T16:47:41.864Z,42.65
2018-02-06T16:50:09.449Z,40.08
2018-02-06T16:52:36.361Z,41.72
2018-02-06T16:55:04.222Z,40.03
2018-02-06T16:57:31.130Z,45.45
2018-02-06T16:59:58.014Z,44.45
2018-02-06T17:02:37.354Z,40.28
2018-02-06T17:05:04.225Z,39.92
2018-02-06T17:07:31.049Z,39.60
2018-02-06T17:09:57.914Z,39.55
2018-02-06T17:12:25.228Z,38.90
2018-02-06T17:14:52.198Z,42.28
2018-02-06T17:17:19.641Z,40.28
2018-02-06T17:19:47.206Z,39.15
2018-02-06T17:22:14.867Z,40.67
2018-02-06T17:24:42.418Z,39.95
2018-02-06T17:27:09.989Z,39.63
2018-02-06T17:29:36.996Z,39.58
2018-02-06T17:32:04.183Z,40.30
2018-02-06T17:34:31.155Z,42.05
2018-02-06T17:36:58.035Z,44.67
2018-02-06T17:39:24.985Z,40.88
2018-02-06T17:41:51.945Z,41.75
2018-02-06T17:44:18.806Z,41.97
2018-02-06T17:46:45.712Z,40.70
2018-02-06T17:49:12.577Z,41.50
2018-02-06T17:51:39.510Z,38.92
2018-02-06T17:54:06.365Z,38.75
2018-02-06T17:56:33.188Z,40.22
2018-02-06T17:59:00.802Z,38.72
2018-02-06T18:01:27.683Z,37.25
2018-02-06T18:03:54.695Z,37.00
2018-02-06T18:06:21.675Z,41.20
2018-02-06T18:08:48.502Z,39.72
2018-02-06T18:11:15.362Z,38.72
2018-02-06T18:13:42.213Z,37.88
2018-02-06T18:16:09.066Z,36.60
2018-02-06T18:18:36.566Z,37.45
2018-02-06T18:21:03.421Z,40.35
2018-02-06T18:23:30.284Z,40.10
2018-02-06T18:25:57.178Z,36.30
2018-02-06T18:28:24.781Z,40.47
2018-02-06T18:30:51.679Z,37.80
2018-02-06T18:33:19.328Z,32.65
2018-02-06T18:35:46.953Z,34.88
2018-02-06T18:38:13.798Z,37.20
2018-02-06T18:40:48.426Z,37.22
2018-02-06T18:43:15.379Z,36.20
2018-02-06T18:45:42.221Z,36.30
2018-02-06T18:48:09.082Z,38.55
2018-02-06T18:50:35.882Z,33.08
2018-02-06T18:53:02.792Z,36.03
2018-02-06T18:55:29.690Z,36.80
2018-02-06T18:57:56.515Z,33.55
2018-02-06T19:00:23.398Z,34.22
2018-02-06T19:02:50.315Z,37.63
2018-02-06T19:05:17.138Z,38.53
2018-02-06T19:07:43.993Z,37.88
2018-02-06T19:10:10.838Z,37.58
2018-02-06T19:12:37.718Z,37.40
2018-02-06T19:15:05.278Z,36.90
2018-02-06T19:17:32.848Z,38.00
2018-02-06T19:20:01.239Z,32.97
2018-02-06T19:22:28.134Z,34.83
2018-02-06T19:24:56.075Z,35.83
2018-02-06T19:27:23.917Z,37.08
2018-02-06T19:29:53.023Z,36.35
2018-02-06T19:32:19.950Z,35.67
2018-02-06T19:34:48.406Z,33.92
2018-02-06T19:37:16.891Z,36.55
2018-02-06T19:39:44.425Z,38.92
2018-02-06T19:42:12.415Z,38.35
2018-02-06T19:44:39.495Z,36.10
2018-02-06T19:47:06.354Z,38.42
2018-02-06T19:49:33.262Z,35.03
2018-02-06T19:52:00.229Z,37.47
2018-02-06T19:54:27.993Z,37.92
2018-02-06T19:56:54.909Z,37.78
2018-02-06T19:59:23.617Z,38.15
2018-02-06T20:01:50.574Z,35.20
2018-02-06T20:04:18.145Z,37.97
2018-02-06T20:06:45.029Z,37.42
2018-02-06T20:09:11.962Z,41.22
2018-02-06T20:11:38.926Z,38.28
2018-02-06T20:14:07.442Z,40.03
2018-02-06T20:16:34.303Z,41.50
2018-02-06T20:19:01.210Z,38.72
2018-02-06T20:21:31.010Z,42.45
2018-02-06T20:23:58.640Z,35.83
2018-02-06T20:26:27.242Z,34.25
2018-02-06T20:28:54.147Z,38.90
2018-02-06T20:31:21.162Z,34.40
2018-02-06T20:33:48.133Z,34.05
2018-02-06T20:36:15.643Z,34.30
2018-02-06T20:38:42.578Z,36.40
2018-02-06T20:41:09.642Z,34.72
2018-02-06T20:43:37.391Z,35.80
2018-02-06T20:46:04.269Z,36.00
2018-02-06T20:48:31.214Z,34.92
2018-02-06T20:50:58.079Z,37.10
2018-02-06T20:53:25.903Z,35.38
2018-02-06T20:55:52.885Z,39.20
2018-02-06T20:58:19.970Z,36.55
2018-02-06T21:00:47.103Z,40.67
2018-02-06T21:03:14.190Z,38.78
2018-02-06T21:05:41.199Z,38.83
2018-02-06T21:08:08.068Z,38.83
2018-02-06T21:10:34.950Z,40.85
2018-02-06T21:13:02.706Z,41.42
2018-02-06T21:15:30.434Z,41.22
2018-02-06T21:17:57.596Z,39.00
2018-02-06T21:20:25.450Z,38.65
2018-02-06T21:22:53.254Z,39.58
2018-02-06T21:25:20.215Z,38.17
2018-02-06T21:27:48.251Z,40.65
2018-02-06T21:30:15.182Z,34.72
2018-02-06T21:32:43.169Z,37.60
2018-02-06T21:35:10.191Z,38.78
2018-02-06T21:37:38.083Z,38.97
2018-02-06T21:40:05.024Z,37.67
2018-02-06T21:42:32.986Z,39.63
2018-02-06T21:44:59.960Z,37.72
2018-02-06T21:47:27.031Z,40.50
2018-02-06T21:49:53.966Z,41.90
2018-02-06T21:52:20.890Z,37.95
2018-02-06T21:54:48.470Z,40.72
2018-02-06T21:57:15.288Z,44.17
2018-02-06T21:59:42.118Z,42.17
2018-02-06T22:02:09.085Z,41.28
2018-02-06T22:04:35.932Z,42.97
2018-02-06T22:07:02.783Z,44.03
2018-02-06T22:09:29.629Z,41.20
2018-02-06T22:11:56.555Z,40.75
2018-02-06T22:14:24.134Z,42.83
2018-02-06T22:16:50.996Z,42.83
2018-02-06T22:19:17.823Z,41.88
2018-02-06T22:21:44.718Z,40.33
2018-02-06T22:24:11.538Z,41.78
2018-02-06T22:26:38.365Z,36.90
2018-02-06T22:29:05.235Z,41.30
2018-02-06T22:31:32.086Z,43.95
2018-02-06T22:33:58.957Z,41.72
2018-02-06T22:36:25.841Z,41.33
2018-02-06T22:38:52.662Z,36.00
2018-02-06T22:41:19.550Z,36.92
2018-02-06T22:43:46.410Z,39.47
2018-02-06T22:46:13.223Z,39.10
2018-02-06T22:48:40.098Z,40.00
2018-02-06T22:51:06.954Z,36.92
2018-02-06T22:53:33.796Z,38.28
2018-02-06T22:56:00.626Z,39.28
2018-02-06T22:58:27.465Z,39.97
2018-02-06T23:00:54.337Z,37.00
2018-02-06T23:03:21.233Z,36.83
2018-02-06T23:05:48.082Z,39.60
2018-02-06T23:08:14.918Z,38.58
2018-02-06T23:10:41.771Z,37.35
2018-02-06T23:13:08.605Z,34.35
2018-02-06T23:15:35.462Z,35.70
2018-02-06T23:18:02.282Z,36.55
2018-02-06T23:20:29.105Z,38.15
2018-02-06T23:22:56.030Z,39.45
2018-02-06T23:25:23.571Z,40.60
2018-02-06T23:27:50.407Z,42.70
2018-02-06T23:30:17.296Z,44.38
2018-02-06T23:32:44.245Z,44.75
2018-02-06T23:35:11.061Z,42.67
2018-02-06T23:37:38.668Z,40.28
2018-02-06T23:40:05.515Z,37.60
2018-02-06T23:42:32.378Z,38.55
2018-02-06T23:44:59.201Z,37.17
2018-02-06T23:47:26.817Z,41.95
2018-02-06T23:49:54.422Z,39.28
2018-02-06T23:52:21.270Z,41.42
2018-02-06T23:54:48.151Z,38.70
2018-02-06T23:57:14.942Z,37.58
2018-02-06T23:59:41.761Z,35.80
